Time;durP1;ratioP1;P1;durP2;ratioP2;P2;SDS_P1;SDS_P2;PMS_P1;PMS_P2;Temp;Humidity;BMP_temperature;BMP_pressure;BME280_temperature;BME280_humidity;BME280_pressure;Samples;Min_cycle;Max_cycle;Signal;HPM_P1;HPM_P2
2024/01/12 00:00:50;;;;;;;10.45;8.07;;;1.80;99.90;;;;;;5057850;28;20205;-73
2024/01/12 00:03:17;;;;;;;8.63;7.70;;;1.90;99.90;;;;;;5056976;28;20222;-75
2024/01/12 00:05:45;;;;;;;8.65;7.15;;;1.90;99.90;;;;;;5055419;28;20773;-74
2024/01/12 00:08:14;;;;;;;7.05;6.28;;;1.90;99.90;;;;;;5053792;28;20719;-75
2024/01/12 00:10:41;;;;;;;6.97;6.28;;;1.90;99.90;;;;;;5057486;28;20206;-74
2024/01/12 00:13:08;;;;;;;6.43;5.60;;;1.90;99.90;;;;;;5056637;28;20222;-75
2024/01/12 00:15:36;;;;;;;5.15;4.75;;;1.80;99.90;;;;;;5056957;28;20269;-75
2024/01/12 00:18:03;;;;;;;5.57;5.18;;;1.80;99.90;;;;;;5054917;28;20217;-74
2024/01/12 00:20:30;;;;;;;5.35;4.95;;;1.80;99.90;;;;;;5056217;28;20198;-75
2024/01/12 00:22:57;;;;;;;5.15;4.75;;;1.80;99.90;;;;;;5057637;28;20222;-75
2024/01/12 00:25:26;;;;;;;5.13;4.72;;;1.80;99.90;;;;;;5059687;28;20253;-75
2024/01/12 00:27:53;;;;;;;5.35;4.95;;;1.80;99.90;;;;;;5062550;28;20214;-75
2024/01/12 00:30:20;;;;;;;6.43;5.65;;;1.90;99.90;;;;;;5059404;28;20195;-75
2024/01/12 00:32:47;;;;;;;5.63;5.20;;;1.90;99.90;;;;;;5060276;28;20227;-75
2024/01/12 00:35:14;;;;;;;5.50;5.00;;;1.90;99.90;;;;;;5059540;28;20221;-74
2024/01/12 00:37:41;;;;;;;5.50;5.03;;;1.90;99.90;;;;;;5057922;28;20833;-75
2024/01/12 00:40:09;;;;;;;5.43;5.03;;;1.90;99.90;;;;;;5059003;28;20202;-74
2024/01/12 00:42:38;;;;;;;5.43;5.00;;;1.80;99.90;;;;;;5059947;28;20305;-75
2024/01/12 00:45:06;;;;;;;5.20;4.80;;;1.80;99.90;;;;;;5061814;28;20225;-75
2024/01/12 00:47:33;;;;;;;4.85;4.55;;;1.80;99.90;;;;;;5059269;28;20215;-74
2024/01/12 00:50:00;;;;;;;4.70;4.30;;;1.80;99.90;;;;;;5057324;28;20209;-75
2024/01/12 00:52:27;;;;;;;4.65;4.25;;;1.80;99.90;;;;;;5059655;28;20245;-75
2024/01/12 00:54:54;;;;;;;4.05;3.75;;;1.80;99.90;;;;;;5061495;28;20266;-75
2024/01/12 00:57:21;;;;;;;4.57;4.25;;;1.80;99.90;;;;;;5060350;28;20229;-75
2024/01/12 00:59:50;;;;;;;4.45;4.15;;;1.80;99.90;;;;;;5061675;28;20249;-75
2024/01/12 01:02:17;;;;;;;4.55;4.25;;;1.70;99.90;;;;;;5059841;28;20227;-75
2024/01/12 01:04:44;;;;;;;4.28;3.97;;;1.70;99.90;;;;;;5057074;28;20229;-74
2024/01/12 01:07:11;;;;;;;3.92;3.72;;;1.60;99.90;;;;;;5057693;28;20226;-74
2024/01/12 01:09:38;;;;;;;4.40;4.10;;;1.70;99.90;;;;;;5056415;28;20215;-74
2024/01/12 01:12:06;;;;;;;3.88;3.67;;;1.60;99.90;;;;;;5057937;28;20773;-74
2024/01/12 01:14:33;;;;;;;3.85;3.65;;;1.60;99.90;;;;;;5060865;28;20229;-74
2024/01/12 01:17:01;;;;;;;4.20;3.90;;;1.60;99.90;;;;;;5063812;28;20235;-74
2024/01/12 01:19:28;;;;;;;3.97;3.78;;;1.60;99.90;;;;;;5056150;28;20202;-75
2024/01/12 01:21:55;;;;;;;4.45;4.15;;;1.60;99.90;;;;;;5059250;28;20240;-74
2024/01/12 01:24:26;;;;;;;4.20;4.00;;;1.60;99.90;;;;;;5059261;28;20942;-74
2024/01/12 01:26:53;;;;;;;4.35;4.05;;;1.60;99.90;;;;;;5058727;28;20591;-75
2024/01/12 01:29:20;;;;;;;3.67;3.47;;;1.60;99.90;;;;;;5056100;28;20607;-74
2024/01/12 01:31:48;;;;;;;3.95;3.75;;;1.50;99.90;;;;;;5060644;28;20732;-75
2024/01/12 01:34:16;;;;;;;3.78;3.58;;;1.50;99.90;;;;;;5058833;28;20222;-74
2024/01/12 01:36:43;;;;;;;4.05;3.85;;;1.50;99.90;;;;;;5059911;28;20229;-75
2024/01/12 01:39:11;;;;;;;3.95;3.72;;;1.50;99.90;;;;;;5060940;28;20779;-74
2024/01/12 01:41:38;;;;;;;3.90;3.60;;;1.60;99.90;;;;;;5059197;28;20235;-75
2024/01/12 01:44:05;;;;;;;3.45;3.25;;;1.50;99.90;;;;;;5058257;28;20222;-75
2024/01/12 01:46:33;;;;;;;3.97;3.70;;;1.50;99.90;;;;;;5057736;28;20202;-75
2024/01/12 01:49:00;;;;;;;3.22;3.03;;;1.50;99.90;;;;;;5055945;28;20199;-75
2024/01/12 01:51:28;;;;;;;3.75;3.55;;;1.50;99.90;;;;;;5055866;28;20656;-75
2024/01/12 01:53:56;;;;;;;3.88;3.58;;;1.50;99.90;;;;;;5061206;28;20210;-75
2024/01/12 01:56:23;;;;;;;3.47;3.28;;;1.50;99.90;;;;;;5065972;28;20199;-74
2024/01/12 01:58:50;;;;;;;3.30;3.20;;;1.50;99.90;;;;;;5063234;28;20206;-73
2024/01/12 02:01:18;;;;;;;3.50;3.30;;;1.50;99.90;;;;;;5066917;28;20218;-74
2024/01/12 02:03:47;;;;;;;3.60;3.40;;;1.50;99.90;;;;;;5059670;28;20214;-74
2024/01/12 02:06:14;;;;;;;3.90;3.70;;;1.50;99.90;;;;;;5056253;28;20208;-74
2024/01/12 02:08:43;;;;;;;3.70;3.50;;;1.50;99.90;;;;;;5055215;28;20222;-74
2024/01/12 02:11:10;;;;;;;3.90;3.70;;;1.50;99.90;;;;;;5058120;28;20624;-75
2024/01/12 02:13:37;;;;;;;4.05;3.75;;;1.50;99.90;;;;;;5055633;28;20225;-75
2024/01/12 02:16:04;;;;;;;3.95;3.65;;;1.40;99.90;;;;;;5056455;28;20577;-75
2024/01/12 02:18:31;;;;;;;3.80;3.60;;;1.30;99.90;;;;;;5057449;28;20253;-75
2024/01/12 02:21:00;;;;;;;3.50;3.30;;;1.30;99.90;;;;;;5054544;28;20195;-75
2024/01/12 02:23:27;;;;;;;4.03;3.78;;;1.40;99.90;;;;;;5058242;28;20222;-75
2024/01/12 02:25:54;;;;;;;3.78;3.58;;;1.40;99.90;;;;;;5054316;28;20203;-74
2024/01/12 02:28:21;;;;;;;3.92;3.72;;;1.40;99.90;;;;;;5038807;28;20864;-75
2024/01/12 02:30:48;;;;;;;3.40;3.20;;;1.40;99.90;;;;;;5037372;28;20203;-74
2024/01/12 02:33:15;;;;;;;4.03;3.83;;;1.40;99.90;;;;;;5053642;28;20889;-75
2024/01/12 02:35:42;;;;;;;3.45;3.25;;;1.50;99.90;;;;;;5058476;28;20206;-75
2024/01/12 02:38:11;;;;;;;3.67;3.47;;;1.50;99.90;;;;;;5057928;28;20252;-74
2024/01/12 02:40:38;;;;;;;3.92;3.72;;;1.50;99.90;;;;;;5055359;28;20214;-75
2024/01/12 02:43:05;;;;;;;3.30;3.10;;;1.40;99.90;;;;;;5042405;28;20231;-75
2024/01/12 02:45:33;;;;;;;3.47;3.28;;;1.40;99.90;;;;;;5039619;28;20202;-74
2024/01/12 02:48:00;;;;;;;3.50;3.30;;;1.40;99.90;;;;;;5037518;28;20608;-75
2024/01/12 02:50:27;;;;;;;3.55;3.35;;;1.40;99.90;;;;;;5036192;28;20290;-74
2024/01/12 02:52:54;;;;;;;3.97;3.67;;;1.40;99.90;;;;;;5051761;28;20238;-74
2024/01/12 02:55:23;;;;;;;3.70;3.50;;;1.50;99.90;;;;;;5057405;28;20225;-75
2024/01/12 02:57:50;;;;;;;3.83;3.55;;;1.40;99.90;;;;;;5047339;28;20219;-75
2024/01/12 03:00:17;;;;;;;3.60;3.40;;;1.40;99.90;;;;;;5037412;28;20199;-74
2024/01/12 03:02:44;;;;;;;4.00;3.67;;;1.40;99.90;;;;;;5034956;28;20733;-75
2024/01/12 03:05:11;;;;;;;3.75;3.55;;;1.50;99.90;;;;;;5038905;28;20241;-74
2024/01/12 03:07:38;;;;;;;3.60;3.40;;;1.50;99.90;;;;;;5043634;28;20222;-74
2024/01/12 03:10:06;;;;;;;3.67;3.47;;;1.40;99.90;;;;;;5036426;28;20213;-75
2024/01/12 03:12:34;;;;;;;3.58;3.38;;;1.50;99.90;;;;;;5037880;28;20712;-75
2024/01/12 03:15:02;;;;;;;3.75;3.47;;;1.50;99.90;;;;;;5037264;28;20215;-75
2024/01/12 03:17:29;;;;;;;3.20;3.00;;;1.50;99.90;;;;;;5039055;28;20218;-74
2024/01/12 03:19:56;;;;;;;3.42;3.25;;;1.50;99.90;;;;;;5038730;28;20199;-74
2024/01/12 03:22:23;;;;;;;3.35;3.17;;;1.50;99.90;;;;;;5047827;28;20227;-74
2024/01/12 03:24:50;;;;;;;2.92;2.83;;;1.50;99.90;;;;;;5058944;28;20222;-74
2024/01/12 03:27:17;;;;;;;3.90;3.70;;;1.50;99.90;;;;;;5055036;28;20221;-74
2024/01/12 03:29:45;;;;;;;3.40;3.20;;;1.50;99.90;;;;;;5059315;28;20206;-74
2024/01/12 03:32:12;;;;;;;2.92;2.83;;;1.50;99.90;;;;;;5058240;28;20230;-74
2024/01/12 03:34:40;;;;;;;3.60;3.40;;;1.50;99.90;;;;;;5056124;28;20222;-74
2024/01/12 03:37:07;;;;;;;3.45;3.22;;;1.50;99.90;;;;;;5049386;28;20226;-74
2024/01/12 03:39:34;;;;;;;3.80;3.60;;;1.50;99.90;;;;;;5037355;28;20199;-74
2024/01/12 03:42:01;;;;;;;3.70;3.50;;;1.50;99.90;;;;;;5039765;28;20227;-74
2024/01/12 03:44:28;;;;;;;3.90;3.63;;;1.40;99.90;;;;;;5037286;28;20229;-74
2024/01/12 03:46:57;;;;;;;3.17;3.08;;;1.40;99.90;;;;;;5037347;28;20222;-74
2024/01/12 03:49:24;;;;;;;3.60;3.40;;;1.50;99.90;;;;;;5036800;28;20210;-74
2024/01/12 03:51:55;;;;;;;3.38;3.28;;;1.50;99.90;;;;;;5035914;28;20234;-74
2024/01/12 03:54:24;;;;;;;3.38;3.17;;;1.50;99.90;;;;;;5038411;28;20257;-74
2024/01/12 03:56:51;;;;;;;2.58;2.47;;;1.60;99.90;;;;;;5043061;28;20807;-74
2024/01/12 03:59:18;;;;;;;3.60;3.40;;;1.60;99.90;;;;;;5056239;28;20194;-74
2024/01/12 04:01:45;;;;;;;3.35;3.20;;;1.60;99.90;;;;;;5054922;28;20229;-74
2024/01/12 04:04:14;;;;;;;3.35;3.22;;;1.60;99.90;;;;;;5037626;28;20233;-74
2024/01/12 04:06:41;;;;;;;3.45;3.25;;;1.60;99.90;;;;;;5038234;28;20296;-74
2024/01/12 04:09:09;;;;;;;3.08;2.97;;;1.60;99.90;;;;;;5037773;28;20206;-74
2024/01/12 04:11:37;;;;;;;3.22;3.13;;;1.60;99.90;;;;;;5033495;28;20290;-74
2024/01/12 04:14:04;;;;;;;3.90;3.70;;;1.60;99.90;;;;;;5038266;28;20215;-74
2024/01/12 04:16:31;;;;;;;3.30;3.10;;;1.60;99.90;;;;;;5037949;28;20293;-74
2024/01/12 04:18:58;;;;;;;3.83;3.63;;;1.60;99.90;;;;;;5056250;28;20203;-74
2024/01/12 04:21:27;;;;;;;3.90;3.70;;;1.50;99.90;;;;;;5056662;28;20209;-74
2024/01/12 04:23:54;;;;;;;4.15;3.90;;;1.50;99.90;;;;;;5055284;28;20245;-74
2024/01/12 04:26:21;;;;;;;3.78;3.58;;;1.40;99.90;;;;;;5058284;28;20316;-74
2024/01/12 04:28:48;;;;;;;3.67;3.47;;;1.30;99.90;;;;;;5056370;28;20234;-74
2024/01/12 04:31:16;;;;;;;3.20;3.10;;;1.20;99.90;;;;;;5054946;28;20251;-74
2024/01/12 04:33:44;;;;;;;4.13;3.83;;;1.10;99.90;;;;;;5060589;28;20229;-75
2024/01/12 04:36:11;;;;;;;3.70;3.50;;;1.00;99.90;;;;;;5055686;28;20218;-73
2024/01/12 04:38:40;;;;;;;4.25;3.95;;;1.00;99.90;;;;;;5055960;28;21288;-74
2024/01/12 04:41:07;;;;;;;3.88;3.67;;;1.00;99.90;;;;;;5055313;28;20205;-74
2024/01/12 04:43:34;;;;;;;3.80;3.60;;;1.00;99.90;;;;;;5058310;28;20222;-74
2024/01/12 04:46:01;;;;;;;3.63;3.40;;;1.10;99.90;;;;;;5057958;28;20206;-74
2024/01/12 04:48:28;;;;;;;4.55;4.25;;;1.10;99.90;;;;;;5056371;28;20221;-73
2024/01/12 04:50:55;;;;;;;4.40;4.10;;;1.10;99.90;;;;;;5060383;28;20206;-74
2024/01/12 04:53:22;;;;;;;4.72;4.43;;;1.10;99.90;;;;;;5059010;28;20221;-74
2024/01/12 04:55:50;;;;;;;4.10;3.80;;;1.10;99.90;;;;;;5060899;28;20728;-74
2024/01/12 04:58:18;;;;;;;4.85;4.55;;;1.10;99.90;;;;;;5066896;28;20225;-74
2024/01/12 05:00:45;;;;;;;4.40;4.10;;;1.10;99.90;;;;;;5060213;28;20199;-74
2024/01/12 05:03:12;;;;;;;4.32;4.10;;;1.10;99.90;;;;;;5060002;28;20814;-74
2024/01/12 05:05:39;;;;;;;3.67;3.47;;;1.10;99.90;;;;;;5056319;28;20199;-74
2024/01/12 05:08:06;;;;;;;4.18;3.97;;;1.10;99.90;;;;;;5064023;28;20249;-74
2024/01/12 05:10:33;;;;;;;3.67;3.47;;;1.20;99.90;;;;;;5062340;28;20204;-74
2024/01/12 05:13:01;;;;;;;3.40;3.20;;;1.20;99.90;;;;;;5063674;28;20228;-74
2024/01/12 05:15:28;;;;;;;3.53;3.33;;;1.20;99.90;;;;;;5061292;28;20469;-74
2024/01/12 05:17:55;;;;;;;3.67;3.47;;;1.20;99.90;;;;;;5060313;28;20230;-74
2024/01/12 05:20:22;;;;;;;3.60;3.40;;;1.20;99.90;;;;;;5059564;28;20213;-74
2024/01/12 05:22:49;;;;;;;3.58;3.28;;;1.10;99.90;;;;;;5057248;28;20913;-74
2024/01/12 05:25:17;;;;;;;4.22;4.03;;;1.10;99.90;;;;;;5066964;28;20229;-74
2024/01/12 05:27:44;;;;;;;4.00;3.80;;;1.00;99.90;;;;;;5060744;28;20312;-74
2024/01/12 05:30:13;;;;;;;4.15;3.95;;;1.00;99.90;;;;;;5060886;28;20203;-74
2024/01/12 05:32:40;;;;;;;4.32;4.03;;;0.90;99.90;;;;;;5059582;28;20251;-74
2024/01/12 05:35:08;;;;;;;4.53;4.22;;;0.80;99.90;;;;;;5063753;28;20230;-74
2024/01/12 05:37:35;;;;;;;4.40;4.03;;;0.80;99.90;;;;;;5063966;28;20219;-73
2024/01/12 05:40:02;;;;;;;4.82;4.43;;;0.80;99.90;;;;;;5063191;28;20201;-74
2024/01/12 05:42:29;;;;;;;4.53;4.22;;;0.80;99.90;;;;;;5060114;28;20218;-74
2024/01/12 05:44:56;;;;;;;4.72;4.43;;;0.80;99.90;;;;;;5060843;28;20512;-74
2024/01/12 05:47:25;;;;;;;4.65;4.35;;;0.80;99.90;;;;;;5060331;28;20229;-74
2024/01/12 05:49:52;;;;;;;4.78;4.47;;;0.80;99.90;;;;;;5061756;28;20198;-74
2024/01/12 05:52:19;;;;;;;4.65;4.35;;;0.70;99.90;;;;;;5061015;28;20230;-74
2024/01/12 05:54:46;;;;;;;4.65;4.35;;;0.80;99.90;;;;;;5063000;28;20226;-75
2024/01/12 05:57:13;;;;;;;4.85;4.55;;;0.80;99.90;;;;;;5060244;28;20223;-75
2024/01/12 05:59:40;;;;;;;4.55;4.25;;;0.80;99.90;;;;;;5061836;28;20225;-75
2024/01/12 06:02:07;;;;;;;4.00;3.72;;;0.80;99.90;;;;;;5061236;28;20225;-75
2024/01/12 06:04:35;;;;;;;3.83;3.63;;;0.90;99.90;;;;;;5056054;28;20226;-74
2024/01/12 06:07:02;;;;;;;4.10;3.80;;;0.90;99.90;;;;;;5056376;28;20296;-73
2024/01/12 06:09:29;;;;;;;4.28;3.97;;;1.00;99.90;;;;;;5059537;28;20202;-74
2024/01/12 06:11:57;;;;;;;4.00;3.80;;;1.00;99.90;;;;;;5055860;28;20219;-74
2024/01/12 06:14:24;;;;;;;4.30;4.10;;;1.00;99.90;;;;;;5056998;28;20226;-74
2024/01/12 06:16:52;;;;;;;4.20;3.92;;;1.00;99.90;;;;;;5054500;28;20219;-74
2024/01/12 06:19:19;;;;;;;4.13;3.83;;;0.90;99.90;;;;;;5058988;28;20230;-74
2024/01/12 06:21:47;;;;;;;5.40;5.00;;;0.80;99.90;;;;;;5056110;28;20226;-75
2024/01/12 06:24:14;;;;;;;5.07;4.78;;;0.80;99.90;;;;;;5059157;28;20237;-75
2024/01/12 06:26:42;;;;;;;4.57;4.28;;;0.80;99.90;;;;;;5057996;28;20225;-75
2024/01/12 06:29:09;;;;;;;3.70;3.50;;;0.80;99.90;;;;;;5058657;28;20201;-75
2024/01/12 06:31:36;;;;;;;3.88;3.60;;;0.80;99.90;;;;;;5055864;28;20654;-74
2024/01/12 06:34:04;;;;;;;3.72;3.53;;;0.80;99.90;;;;;;5059176;28;20226;-75
2024/01/12 06:36:31;;;;;;;4.10;3.80;;;0.90;99.90;;;;;;5055744;28;20218;-75
2024/01/12 06:38:59;;;;;;;3.55;3.35;;;0.90;99.90;;;;;;5055825;28;20875;-74
2024/01/12 06:41:26;;;;;;;3.50;3.30;;;1.00;99.90;;;;;;5054326;28;20198;-75
2024/01/12 06:43:53;;;;;;;4.50;4.20;;;1.00;99.90;;;;;;5054206;28;20231;-75
2024/01/12 06:46:20;;;;;;;4.25;3.95;;;1.00;99.90;;;;;;5060180;28;20209;-75
2024/01/12 06:48:47;;;;;;;4.60;4.30;;;1.00;99.90;;;;;;5067731;28;20675;-76
2024/01/12 06:51:22;;;;;;;4.53;4.20;;;0.90;99.90;;;;;;5053748;28;20198;-76
2024/01/12 06:53:49;;;;;;;4.80;4.50;;;0.80;99.90;;;;;;5057971;28;20744;-76
2024/01/12 06:56:21;;;;;;;5.03;4.63;;;0.80;99.90;;;;;;5055483;28;20210;-76
2024/01/12 06:58:48;;;;;;;5.38;4.93;;;0.70;99.90;;;;;;5050546;28;20226;-76
2024/01/12 07:01:18;;;;;;;5.30;4.90;;;0.60;99.90;;;;;;5053809;28;20705;-76
2024/01/12 07:03:45;;;;;;;4.80;4.47;;;0.60;99.90;;;;;;5056123;28;20317;-75
2024/01/12 07:06:12;;;;;;;4.47;4.18;;;0.60;99.90;;;;;;5056033;28;20198;-75
2024/01/12 07:08:39;;;;;;;4.40;4.10;;;0.60;99.90;;;;;;5056656;28;20218;-75
2024/01/12 07:11:07;;;;;;;4.28;3.97;;;0.70;99.90;;;;;;5056166;28;20665;-76
2024/01/12 07:13:36;;;;;;;4.60;4.30;;;0.70;99.90;;;;;;5055197;28;20348;-75
2024/01/12 07:16:04;;;;;;;4.22;4.03;;;0.60;99.90;;;;;;5054609;28;20724;-76
2024/01/12 07:18:31;;;;;;;4.65;4.35;;;0.60;99.90;;;;;;5055758;28;20253;-75
2024/01/12 07:21:02;;;;;;;4.45;4.15;;;0.60;99.90;;;;;;5057801;28;20198;-75
2024/01/12 07:23:30;;;;;;;4.40;4.10;;;0.60;99.90;;;;;;5056082;28;20625;-75
2024/01/12 07:25:58;;;;;;;4.40;4.10;;;0.60;99.90;;;;;;5053858;28;20784;-74
2024/01/12 07:28:25;;;;;;;4.10;3.90;;;0.70;99.90;;;;;;5057574;28;20250;-75
2024/01/12 07:30:55;;;;;;;3.40;3.20;;;0.70;99.90;;;;;;5052889;28;20942;-75
2024/01/12 07:33:22;;;;;;;4.00;3.80;;;0.80;99.90;;;;;;5052457;28;20317;-76
2024/01/12 07:35:49;;;;;;;4.07;3.88;;;0.80;99.90;;;;;;5056335;28;20249;-76
2024/01/12 07:38:16;;;;;;;3.70;3.50;;;0.80;99.90;;;;;;5054277;28;20704;-75
2024/01/12 07:40:43;;;;;;;4.10;3.90;;;0.90;99.90;;;;;;5054626;28;20214;-75
2024/01/12 07:43:10;;;;;;;4.57;4.28;;;0.90;99.90;;;;;;5052659;28;20222;-75
2024/01/12 07:45:37;;;;;;;4.03;3.83;;;0.90;99.90;;;;;;5057665;28;20210;-75
2024/01/12 07:48:07;;;;;;;5.03;4.68;;;0.90;99.90;;;;;;5058830;28;20225;-75
2024/01/12 07:50:35;;;;;;;4.95;4.55;;;1.00;99.90;;;;;;5057839;28;20195;-75
2024/01/12 07:53:02;;;;;;;4.85;4.55;;;1.00;99.90;;;;;;5056875;28;20328;-76
2024/01/12 07:55:29;;;;;;;4.65;4.35;;;0.90;99.90;;;;;;5054940;28;20226;-75
2024/01/12 07:57:56;;;;;;;4.50;4.20;;;0.90;99.90;;;;;;5055746;28;20724;-75
2024/01/12 08:00:23;;;;;;;4.07;3.78;;;0.90;99.90;;;;;;5058477;28;20232;-75
2024/01/12 08:02:52;;;;;;;4.95;4.55;;;0.90;99.90;;;;;;5057689;28;20735;-74
2024/01/12 08:05:22;;;;;;;5.00;4.60;;;1.00;99.90;;;;;;5056953;28;20245;-76
2024/01/12 08:07:49;;;;;;;5.03;4.72;;;1.10;99.90;;;;;;5056456;28;20229;-75
2024/01/12 08:10:16;;;;;;;5.13;4.75;;;1.20;99.90;;;;;;5056261;28;20202;-75
2024/01/12 08:12:43;;;;;;;5.05;4.70;;;1.20;99.90;;;;;;5057667;28;20218;-76
2024/01/12 08:15:10;;;;;;;5.47;5.07;;;1.10;99.90;;;;;;5058746;28;20233;-75
2024/01/12 08:17:38;;;;;;;5.68;5.28;;;1.00;99.90;;;;;;5054744;28;20229;-76
2024/01/12 08:20:06;;;;;;;4.82;4.53;;;0.90;99.90;;;;;;5055336;28;20202;-76
2024/01/12 08:22:35;;;;;;;4.90;4.55;;;0.90;99.90;;;;;;5059825;28;20238;-76
2024/01/12 08:25:02;;;;;;;5.25;4.85;;;1.10;99.90;;;;;;5054246;28;20233;-76
2024/01/12 08:27:29;;;;;;;4.75;4.45;;;2.10;99.90;;;;;;5055731;28;20616;-76
2024/01/12 08:29:56;;;;;;;4.47;4.18;;;3.10;99.90;;;;;;5057321;28;20214;-75
2024/01/12 08:32:23;;;;;;;4.63;4.32;;;4.00;99.90;;;;;;5058277;28;21066;-76
2024/01/12 08:34:50;;;;;;;4.32;4.03;;;4.80;99.90;;;;;;5060684;28;20383;-76
2024/01/12 08:37:17;;;;;;;4.38;4.07;;;5.40;99.90;;;;;;5067323;28;20232;-75
2024/01/12 08:39:46;;;;;;;4.82;4.50;;;5.80;99.90;;;;;;5055471;28;20213;-75
2024/01/12 08:42:13;;;;;;;5.38;4.95;;;6.40;99.90;;;;;;5048227;28;20662;-75
2024/01/12 08:44:41;;;;;;;6.80;6.20;;;6.80;99.90;;;;;;5054088;28;20218;-75
2024/01/12 08:47:08;;;;;;;6.05;5.55;;;7.10;99.90;;;;;;5051324;28;20708;-74
2024/01/12 08:49:35;;;;;;;6.07;4.78;;;7.60;99.90;;;;;;5050546;28;20206;-75
2024/01/12 08:52:02;;;;;;;5.82;4.57;;;7.90;99.90;;;;;;5050543;28;20253;-76
2024/01/12 08:54:29;;;;;;;4.90;4.50;;;8.10;99.90;;;;;;5056818;28;20221;-76
2024/01/12 08:56:57;;;;;;;4.57;4.18;;;8.30;99.90;;;;;;5053121;28;20308;-75
2024/01/12 08:59:25;;;;;;;4.78;4.38;;;8.30;99.90;;;;;;5056598;28;20205;-74
2024/01/12 09:01:52;;;;;;;4.75;4.38;;;8.40;99.90;;;;;;5058604;28;21228;-75
2024/01/12 09:04:19;;;;;;;4.97;4.50;;;8.70;99.90;;;;;;5054850;28;20229;-74
2024/01/12 09:06:46;;;;;;;4.82;4.43;;;8.90;99.90;;;;;;5053538;28;20328;-74
2024/01/12 09:09:13;;;;;;;5.32;4.82;;;9.20;99.90;;;;;;5056130;28;20213;-74
2024/01/12 09:11:40;;;;;;;4.75;4.43;;;9.70;99.90;;;;;;5055632;28;20201;-74
2024/01/12 09:14:09;;;;;;;4.95;4.55;;;9.80;99.90;;;;;;5053220;28;20222;-75
2024/01/12 09:16:36;;;;;;;5.55;4.65;;;10.10;99.90;;;;;;5055055;28;20666;-75
2024/01/12 09:19:03;;;;;;;4.90;4.50;;;10.20;99.90;;;;;;5051195;28;20210;-75
2024/01/12 09:21:30;;;;;;;4.80;4.35;;;10.30;99.90;;;;;;5054861;28;20297;-75
2024/01/12 09:23:57;;;;;;;4.57;4.18;;;11.30;99.90;;;;;;5052591;28;20720;-75
2024/01/12 09:26:24;;;;;;;5.25;4.38;;;12.40;99.90;;;;;;5051298;28;20210;-75
2024/01/12 09:28:51;;;;;;;4.05;3.72;;;14.00;99.90;;;;;;5054769;28;20647;-76
2024/01/12 09:31:20;;;;;;;4.80;4.32;;;15.80;99.90;;;;;;5057443;28;20202;-77
2024/01/12 09:33:47;;;;;;;4.22;3.90;;;17.00;99.90;;;;;;5060350;28;20233;-75
2024/01/12 09:36:14;;;;;;;3.70;3.40;;;18.00;97.20;;;;;;5062257;28;20216;-77
2024/01/12 09:38:41;;;;;;;4.25;3.95;;;19.20;91.30;;;;;;5054507;28;20279;-76
2024/01/12 09:41:10;;;;;;;4.28;3.80;;;19.90;85.20;;;;;;5055387;28;20206;-75
2024/01/12 09:43:38;;;;;;;5.22;3.95;;;20.40;78.30;;;;;;5055744;28;20313;-75
2024/01/12 09:46:09;;;;;;;3.95;3.63;;;20.70;73.60;;;;;;5049893;28;20202;-75
2024/01/12 09:48:38;;;;;;;4.18;3.88;;;20.90;71.00;;;;;;5052552;28;20222;-75
2024/01/12 09:51:07;;;;;;;3.95;3.65;;;21.10;67.80;;;;;;5053454;28;20221;-76
2024/01/12 09:53:36;;;;;;;5.10;4.10;;;21.20;64.10;;;;;;5056085;28;20223;-76
2024/01/12 09:56:03;;;;;;;4.63;3.97;;;21.10;66.30;;;;;;5053621;28;20219;-75
2024/01/12 09:58:30;;;;;;;4.70;4.25;;;20.90;63.60;;;;;;5055528;28;20218;-76
2024/01/12 10:00:58;;;;;;;6.45;5.45;;;20.50;64.80;;;;;;5052804;28;20199;-76
2024/01/12 10:03:26;;;;;;;6.07;5.35;;;19.90;68.30;;;;;;5054714;28;20251;-75
2024/01/12 10:05:54;;;;;;;6.07;4.35;;;18.50;71.20;;;;;;5052240;28;20519;-75
2024/01/12 10:08:21;;;;;;;6.63;4.47;;;17.10;74.70;;;;;;5052492;28;20292;-75
2024/01/12 10:10:49;;;;;;;7.50;5.43;;;15.70;79.00;;;;;;5053225;28;20697;-76
2024/01/12 10:13:16;;;;;;;5.43;4.75;;;14.80;88.30;;;;;;5050538;28;20795;-74
2024/01/12 10:15:43;;;;;;;4.60;4.20;;;13.70;89.20;;;;;;5048856;28;20270;-75
2024/01/12 10:18:10;;;;;;;5.38;4.40;;;12.70;91.10;;;;;;5049639;28;20226;-76
2024/01/12 10:20:38;;;;;;;5.95;5.35;;;12.00;93.10;;;;;;5052032;28;20851;-74
2024/01/12 10:23:08;;;;;;;4.63;4.22;;;11.80;95.30;;;;;;5051454;28;20225;-74
2024/01/12 10:25:35;;;;;;;4.53;4.07;;;12.00;94.60;;;;;;5048710;28;20234;-76
2024/01/12 10:28:02;;;;;;;5.38;4.88;;;12.00;95.60;;;;;;5048444;28;20315;-76
2024/01/12 10:30:32;;;;;;;5.03;4.28;;;12.10;96.00;;;;;;5046071;28;20770;-76
2024/01/12 10:33:00;;;;;;;6.22;4.78;;;12.00;96.10;;;;;;5047803;28;20251;-75
2024/01/12 10:35:28;;;;;;;4.72;4.32;;;12.10;96.70;;;;;;5046847;28;20226;-74
2024/01/12 10:37:59;;;;;;;4.80;4.40;;;11.80;96.90;;;;;;5048312;28;20233;-75
2024/01/12 10:40:27;;;;;;;7.05;4.72;;;11.40;96.80;;;;;;5054319;28;20198;-77
2024/01/12 10:42:57;;;;;;;4.57;4.18;;;11.20;98.60;;;;;;5057298;28;20222;-77
2024/01/12 10:45:27;;;;;;;5.07;4.57;;;10.70;98.70;;;;;;5057963;28;20225;-76
2024/01/12 10:48:00;;;;;;;5.13;4.63;;;10.20;99.50;;;;;;5056343;28;20222;-76
2024/01/12 10:50:27;;;;;;;5.32;4.82;;;9.90;99.90;;;;;;5051482;28;20206;-77
2024/01/12 10:53:06;;;;;;;7.93;5.32;;;10.10;99.90;;;;;;5052800;28;20312;-77
2024/01/12 10:55:38;;;;;;;5.93;4.75;;;10.20;99.90;;;;;;5049904;28;20957;-74
2024/01/12 10:58:06;;;;;;;4.57;4.18;;;10.10;99.90;;;;;;5050590;28;20218;-76
2024/01/12 11:00:33;;;;;;;6.68;5.10;;;10.30;99.90;;;;;;5051635;28;20201;-74
2024/01/12 11:03:01;;;;;;;5.63;5.13;;;10.40;99.90;;;;;;5056225;28;20237;-76
2024/01/12 11:05:29;;;;;;;5.85;5.10;;;10.70;99.90;;;;;;5054583;28;20284;-77
2024/01/12 11:08:00;;;;;;;6.40;5.75;;;10.60;99.90;;;;;;5050275;28;20245;-74
2024/01/12 11:10:28;;;;;;;6.70;6.10;;;10.40;99.90;;;;;;5050347;28;20198;-75
2024/01/12 11:12:57;;;;;;;12.25;6.95;;;10.10;99.90;;;;;;5053191;28;20839;-75
2024/01/12 11:15:24;;;;;;;6.45;5.85;;;9.80;99.90;;;;;;5050719;28;20260;-75
2024/01/12 11:17:51;;;;;;;7.20;6.25;;;9.60;99.90;;;;;;5048860;28;20229;-76
2024/01/12 11:20:20;;;;;;;7.45;5.70;;;9.80;99.90;;;;;;5043297;28;20230;-75
2024/01/12 11:22:48;;;;;;;6.88;6.15;;;10.10;99.90;;;;;;5047846;28;20222;-75
2024/01/12 11:25:17;;;;;;;6.75;6.00;;;10.30;99.90;;;;;;5040781;28;20233;-75
2024/01/12 11:27:48;;;;;;;5.97;5.38;;;10.60;99.90;;;;;;5048330;28;20306;-75
2024/01/12 11:30:18;;;;;;;6.47;5.88;;;11.00;99.90;;;;;;5053938;28;20835;-75
2024/01/12 11:32:45;;;;;;;6.28;5.68;;;11.20;99.90;;;;;;5046208;28;20221;-74
2024/01/12 11:35:14;;;;;;;6.45;5.85;;;11.40;99.90;;;;;;5049625;28;20883;-74
2024/01/12 11:37:43;;;;;;;6.03;5.53;;;11.50;99.90;;;;;;5048755;28;20224;-75
2024/01/12 11:40:12;;;;;;;5.90;5.30;;;11.70;99.90;;;;;;5050785;28;20206;-75
2024/01/12 11:42:39;;;;;;;6.03;5.43;;;12.00;99.90;;;;;;5051040;28;20226;-76
2024/01/12 11:45:09;;;;;;;7.68;6.00;;;11.80;99.90;;;;;;5048858;28;20214;-74
2024/01/12 11:47:39;;;;;;;6.00;5.50;;;12.00;99.90;;;;;;5045121;28;20921;-74
2024/01/12 11:50:07;;;;;;;5.38;4.88;;;11.70;99.90;;;;;;5043349;28;20194;-73
2024/01/12 11:52:34;;;;;;;5.88;5.28;;;11.40;99.90;;;;;;5046970;28;20233;-77
2024/01/12 11:55:01;;;;;;;5.22;4.82;;;11.30;99.90;;;;;;5053495;28;20812;-76
2024/01/12 11:57:28;;;;;;;5.60;5.10;;;11.10;99.90;;;;;;5051995;28;20226;-75
2024/01/12 11:59:56;;;;;;;5.20;4.70;;;10.80;99.90;;;;;;5048718;28;20194;-75
2024/01/12 12:02:24;;;;;;;5.25;4.28;;;10.70;99.90;;;;;;5048373;28;20222;-74
2024/01/12 12:04:53;;;;;;;4.55;4.25;;;10.70;99.90;;;;;;5053874;28;20313;-74
2024/01/12 12:07:25;;;;;;;4.30;3.90;;;10.80;99.90;;;;;;5051277;28;20233;-76
2024/01/12 12:09:52;;;;;;;4.75;4.45;;;10.70;99.90;;;;;;5051052;28;20305;-76
2024/01/12 12:12:19;;;;;;;4.60;4.20;;;10.70;99.90;;;;;;5051585;28;20222;-74
2024/01/12 12:14:57;;;;;;;5.28;4.10;;;10.80;99.90;;;;;;5052536;28;20226;-74
2024/01/12 12:17:26;;;;;;;8.20;3.97;;;10.80;99.90;;;;;;5049408;28;21127;-74
2024/01/12 12:19:55;;;;;;;4.63;4.22;;;10.90;99.90;;;;;;5051221;28;20211;-76
2024/01/12 12:22:23;;;;;;;4.32;3.97;;;10.70;99.90;;;;;;5052869;28;20268;-75
2024/01/12 12:24:50;;;;;;;3.83;3.53;;;10.50;99.90;;;;;;5052771;28;20642;-76
2024/01/12 12:27:18;;;;;;;4.70;4.30;;;10.20;99.90;;;;;;5054502;28;20233;-75
2024/01/12 12:29:45;;;;;;;4.80;4.35;;;10.00;99.90;;;;;;5053791;28;20206;-75
2024/01/12 12:32:13;;;;;;;4.80;4.40;;;10.00;99.90;;;;;;5054541;28;20233;-74
2024/01/12 12:34:41;;;;;;;8.57;4.75;;;10.00;99.90;;;;;;5051620;28;20226;-76
2024/01/12 12:37:10;;;;;;;5.45;4.78;;;9.90;99.90;;;;;;5055672;28;20222;-74
2024/01/12 12:39:38;;;;;;;5.47;4.90;;;9.90;99.90;;;;;;5050063;28;20210;-75
2024/01/12 12:42:06;;;;;;;5.13;4.72;;;10.00;99.90;;;;;;5053248;28;20229;-74
2024/01/12 12:44:35;;;;;;;4.95;4.55;;;9.70;99.90;;;;;;5052942;28;20949;-75
2024/01/12 12:47:05;;;;;;;4.72;4.32;;;9.40;99.90;;;;;;5050566;28;20220;-74
2024/01/12 12:49:33;;;;;;;4.50;4.18;;;9.30;99.90;;;;;;5052828;28;20297;-74
2024/01/12 12:52:00;;;;;;;4.85;4.45;;;9.00;99.90;;;;;;5049890;28;20210;-76
2024/01/12 12:54:30;;;;;;;5.40;4.90;;;8.80;99.90;;;;;;5051426;28;20230;-75
2024/01/12 12:56:58;;;;;;;5.65;4.70;;;8.80;99.90;;;;;;5053629;28;20222;-74